Decoded Metar for KMTO (MATTOON/CHARLEST in IL, USA) (IATA:MTO) | Meteo·Mobile Aviation Weather
aviador You're here:

KMTO Decoded Metar

MATTOON/CHARLEST in IL, USA
Report Time2018-10-18 08:53:00
UTC Time2018-10-18 09:02:26
Flight Rules vfr VFR
WindCalm
Visibility9999 m
Phenomena:N/A
Clouds:N/A
Expected CloudBase > 400 ft AGL from Temp-Dew spread
CeilingNone
Temp01°C (ISA -13)
Dew Point00°C (93% RH)
AAT-1.0°C
QNH1033 hPa
Density Alt-1,424 ft
Elevation702 ft
Report Wrong Elevation
Raw Report
KMTO 180853Z AUTO 00000KT 10SM CLR 01/00 A3050 RMK AO2 SLP331
T00110000 53006=

Extra information for KMTO:More info

Metar Taf Metar & Taf Last 4 Metars F.Rules Stats Wind Profile Meteogram Temp Stats Airport Information Weather charts Add Link Nearby VenuesMetar ALERT Operation Metar Decoded Social comments

AIRNAV info for KMTO